Time;durP1;ratioP1;P1;durP2;ratioP2;P2;SDS_P1;SDS_P2;PMS_P1;PMS_P2;Temp;Humidity;BMP_temperature;BMP_pressure;BME280_temperature;BME280_humidity;BME280_pressure;Samples;Min_cycle;Max_cycle;Signal;HPM_P1;HPM_P2
2023/04/29 00:00:32;;;;;;;4.07;3.10;;;;;;;13.26;100.00;100583.09;5131344;27;20063;-77
2023/04/29 00:02:58;;;;;;;4.50;3.20;;;;;;;13.23;100.00;100578.94;5118642;27;20035;-77
2023/04/29 00:05:24;;;;;;;6.07;3.75;;;;;;;13.22;100.00;100579.91;5095962;27;20047;-77
2023/04/29 00:07:50;;;;;;;6.60;3.80;;;;;;;13.23;100.00;100576.28;5095567;27;20118;-78
2023/04/29 00:10:15;;;;;;;5.13;4.18;;;;;;;13.24;100.00;100579.75;5115608;27;20034;-78
2023/04/29 00:12:41;;;;;;;6.65;3.63;;;;;;;13.25;100.00;100581.44;5111108;27;20727;-78
2023/04/29 00:15:08;;;;;;;6.70;4.53;;;;;;;13.21;100.00;100577.41;5114176;27;20027;-78
2023/04/29 00:17:34;;;;;;;5.03;3.22;;;;;;;13.09;100.00;100572.38;5114218;27;20146;-78
2023/04/29 00:20:00;;;;;;;4.68;2.67;;;;;;;13.01;100.00;100577.66;5133605;27;20059;-78
2023/04/29 00:22:27;;;;;;;6.35;4.00;;;;;;;12.93;100.00;100572.31;5114230;27;20036;-78
2023/04/29 00:24:53;;;;;;;3.95;3.33;;;;;;;12.92;100.00;100578.59;5115609;27;20143;-78
2023/04/29 00:27:19;;;;;;;4.85;3.70;;;;;;;12.90;100.00;100573.44;5133702;27;20031;-74
2023/04/29 00:29:45;;;;;;;4.07;3.10;;;;;;;12.89;100.00;100571.78;5098505;27;20039;-74
2023/04/29 00:32:11;;;;;;;4.70;3.17;;;;;;;12.91;100.00;100577.78;5128429;27;20031;-79
2023/04/29 00:34:37;;;;;;;4.72;2.75;;;;;;;12.93;100.00;100572.31;5092681;27;20031;-79
2023/04/29 00:37:03;;;;;;;3.67;3.38;;;;;;;12.96;100.00;100582.59;5096258;27;20027;-79
2023/04/29 00:39:29;;;;;;;4.70;3.33;;;;;;;12.91;100.00;100580.44;5111679;27;20038;-79
2023/04/29 00:41:55;;;;;;;8.68;3.05;;;;;;;12.87;100.00;100579.91;5095933;27;20027;-79
2023/04/29 00:44:21;;;;;;;4.40;3.00;;;;;;;12.82;100.00;100576.06;5093493;27;20039;-79
2023/04/29 00:46:47;;;;;;;7.00;3.47;;;;;;;12.76;100.00;100580.16;5109784;27;20487;-79
2023/04/29 00:49:13;;;;;;;6.13;3.17;;;;;;;12.71;100.00;100580.63;5131469;27;20038;-79
2023/04/29 00:51:41;;;;;;;5.63;3.78;;;;;;;12.62;100.00;100581.53;5077761;27;20051;-75
2023/04/29 00:54:08;;;;;;;6.20;3.88;;;;;;;12.59;100.00;100584.50;5113444;27;20027;-74
2023/04/29 00:56:36;;;;;;;5.88;5.18;;;;;;;12.57;100.00;100582.00;5130210;27;20107;-81
2023/04/29 00:59:03;;;;;;;6.03;4.63;;;;;;;12.51;100.00;100578.16;5095757;27;20118;-81
2023/04/29 01:01:29;;;;;;;6.47;5.07;;;;;;;12.54;100.00;100587.63;5128989;27;20097;-81
2023/04/29 01:03:56;;;;;;;6.45;3.78;;;;;;;12.53;100.00;100578.81;5126566;27;20492;-81
2023/04/29 01:06:53;;;;;;;4.97;4.10;;;;;;;12.56;100.00;100582.16;5094741;27;20363;-81
2023/04/29 01:09:46;;;;;;;7.95;4.45;;;;;;;12.52;100.00;100578.97;5110055;27;20027;-77
2023/04/29 01:12:35;;;;;;;7.40;4.80;;;;;;;12.51;100.00;100585.28;5110655;27;20387;-81
2023/04/29 01:15:05;;;;;;;8.57;5.18;;;;;;;12.51;100.00;100580.81;5098570;27;20039;-81
2023/04/29 01:17:47;;;;;;;7.18;5.07;;;;;;;12.51;100.00;100583.47;5109981;27;20464;-81
2023/04/29 01:20:13;;;;;;;7.78;4.93;;;;;;;12.50;100.00;100584.44;5105196;27;20027;-81
2023/04/29 01:22:39;;;;;;;9.45;5.40;;;;;;;12.49;100.00;100580.13;5085741;27;20038;-81
2023/04/29 01:25:06;;;;;;;7.78;5.95;;;;;;;12.51;100.00;100579.97;5127046;27;20511;-81
2023/04/29 01:27:50;;;;;;;11.32;5.28;;;;;;;12.55;100.00;100573.38;5111353;27;20067;-77
2023/04/29 01:30:16;;;;;;;6.35;5.15;;;;;;;12.50;100.00;100575.66;5112924;27;20038;-77
2023/04/29 01:33:05;;;;;;;8.13;5.50;;;;;;;12.53;100.00;100573.53;5074199;27;20062;-81
2023/04/29 01:36:09;;;;;;;8.27;5.25;;;;;;;12.51;100.00;100577.31;5093626;28;20043;-81
2023/04/29 01:38:43;;;;;;;15.30;8.52;;;;;;;12.49;100.00;100573.97;5069861;27;20096;-81
2023/04/29 01:41:14;;;;;;;17.38;10.20;;;;;;;12.50;100.00;100576.47;5103709;27;20467;-81
2023/04/29 01:43:45;;;;;;;11.02;6.63;;;;;;;12.53;100.00;100583.31;5100167;27;20047;-81
2023/04/29 01:46:19;;;;;;;12.27;6.82;;;;;;;12.54;100.00;100579.66;5110634;27;20110;-81
2023/04/29 01:48:45;;;;;;;9.35;6.57;;;;;;;12.57;100.00;100579.34;5110608;27;20483;-81
2023/04/29 01:51:11;;;;;;;9.80;6.57;;;;;;;12.60;100.00;100576.41;5027233;27;20026;-81
2023/04/29 01:53:42;;;;;;;10.35;6.88;;;;;;;12.61;100.00;100580.69;5110393;27;20134;-81
2023/04/29 01:56:08;;;;;;;14.90;6.95;;;;;;;12.62;100.00;100586.84;5112488;27;20030;-81
2023/04/29 01:58:44;;;;;;;8.90;6.95;;;;;;;12.63;100.00;100586.69;5105129;27;20035;-81
2023/04/29 02:01:28;;;;;;;12.15;7.15;;;;;;;12.63;100.00;100581.38;5111901;27;20115;-81
2023/04/29 02:03:54;;;;;;;10.73;6.97;;;;;;;12.64;100.00;100580.44;5111502;27;20113;-81
2023/04/29 02:06:20;;;;;;;13.80;7.07;;;;;;;12.65;100.00;100579.44;5111491;27;20080;-81
2023/04/29 02:08:51;;;;;;;9.32;6.78;;;;;;;12.66;100.00;100582.91;5094855;27;20067;-81
2023/04/29 02:11:18;;;;;;;9.30;6.55;;;;;;;12.69;100.00;100585.25;5113801;27;20030;-81
2023/04/29 02:13:44;;;;;;;11.77;6.47;;;;;;;12.67;100.00;100583.72;5112671;27;20042;-81
2023/04/29 02:16:13;;;;;;;7.53;6.03;;;;;;;12.69;100.00;100585.25;5111898;27;20031;-80
2023/04/29 02:18:55;;;;;;;8.30;6.53;;;;;;;12.67;100.00;100592.53;5110264;27;20027;-81
2023/04/29 02:21:21;;;;;;;9.70;6.20;;;;;;;12.65;100.00;100592.69;5094586;27;20480;-81
2023/04/29 02:23:47;;;;;;;8.07;6.00;;;;;;;12.61;100.00;100591.31;5097940;27;20064;-79
2023/04/29 02:26:14;;;;;;;6.47;5.43;;;;;;;12.61;100.00;100598.44;5111963;27;20636;-78
2023/04/29 02:28:40;;;;;;;6.65;5.28;;;;;;;12.58;100.00;100591.63;5094206;27;20023;-78
2023/04/29 02:31:06;;;;;;;104.85;9.82;;;;;;;12.56;100.00;100603.38;5122391;27;20098;-78
2023/04/29 02:33:32;;;;;;;9.60;6.05;;;;;;;12.50;100.00;100596.88;5092340;27;20100;-79
2023/04/29 02:36:01;;;;;;;6.25;5.10;;;;;;;12.46;100.00;100604.28;5110917;27;20490;-78
2023/04/29 02:38:26;;;;;;;6.20;4.70;;;;;;;12.44;100.00;100600.16;5109818;27;20023;-79
2023/04/29 02:40:52;;;;;;;6.32;4.45;;;;;;;12.44;100.00;100594.84;5090875;27;20034;-78
2023/04/29 02:43:20;;;;;;;8.82;5.53;;;;;;;12.41;100.00;100598.59;5111490;27;20027;-78
2023/04/29 02:45:46;;;;;;;14.65;8.02;;;;;;;12.36;100.00;100599.06;5094375;27;20524;-78
2023/04/29 02:48:12;;;;;;;15.50;8.63;;;;;;;12.37;100.00;100592.81;5093252;27;20150;-78
2023/04/29 02:50:39;;;;;;;12.05;8.68;;;;;;;12.38;100.00;100599.75;5109148;27;20039;-78
2023/04/29 02:53:05;;;;;;;88.43;9.73;;;;;;;12.37;100.00;100595.44;5093508;27;20030;-78
2023/04/29 02:55:31;;;;;;;9.93;7.47;;;;;;;12.36;100.00;100596.41;5110564;27;20028;-78
2023/04/29 02:58:02;;;;;;;10.63;7.65;;;;;;;12.35;100.00;100599.22;5105877;27;20031;-78
2023/04/29 03:00:28;;;;;;;15.88;7.72;;;;;;;12.33;100.00;100598.53;5092978;27;20040;-78
2023/04/29 03:02:54;;;;;;;10.00;7.55;;;;;;;12.34;100.00;100602.88;5094811;27;20046;-74
2023/04/29 03:05:20;;;;;;;9.95;6.95;;;;;;;12.35;100.00;100602.72;5093500;28;20039;-74
2023/04/29 03:07:45;;;;;;;10.48;6.70;;;;;;;12.37;100.00;100597.25;5093447;27;20084;-78
2023/04/29 03:10:11;;;;;;;12.18;7.53;;;;;;;12.39;100.00;100609.38;5095224;27;20092;-78
2023/04/29 03:12:38;;;;;;;11.10;8.25;;;;;;;12.44;100.00;100606.25;5111286;27;20103;-78
2023/04/29 03:15:06;;;;;;;11.02;9.32;;;;;;;12.50;100.00;100610.13;5124366;27;20023;-78
2023/04/29 03:17:33;;;;;;;11.48;7.93;;;;;;;12.52;100.00;100606.34;5103756;28;20033;-78
2023/04/29 03:19:59;;;;;;;10.82;7.70;;;;;;;12.54;100.00;100608.84;5111140;27;20038;-78
2023/04/29 03:22:25;;;;;;;10.63;8.95;;;;;;;12.56;100.00;100612.16;5104534;27;20095;-78
2023/04/29 03:24:51;;;;;;;12.98;8.55;;;;;;;12.59;100.00;100606.56;5115225;27;20036;-78
2023/04/29 03:27:17;;;;;;;10.65;8.25;;;;;;;12.62;100.00;100616.00;5103279;28;20038;-78
2023/04/29 03:29:43;;;;;;;13.15;8.55;;;;;;;12.64;100.00;100620.19;5106453;27;20033;-78
2023/04/29 03:32:09;;;;;;;10.05;8.48;;;;;;;12.67;100.00;100615.56;5093658;27;20126;-78
2023/04/29 03:34:35;;;;;;;8.60;6.90;;;;;;;12.67;100.00;100621.69;5110412;27;20757;-78
2023/04/29 03:37:21;;;;;;;8.60;7.60;;;;;;;12.67;100.00;100613.75;5116803;28;20043;-78
2023/04/29 03:39:53;;;;;;;9.90;8.27;;;;;;;12.70;100.00;100618.75;5089484;28;20562;-79
2023/04/29 03:42:19;;;;;;;9.95;8.10;;;;;;;12.71;100.00;100615.09;5090448;28;20031;-78
2023/04/29 03:44:45;;;;;;;8.30;7.43;;;;;;;12.73;100.00;100613.13;5105660;28;20034;-78
2023/04/29 03:47:12;;;;;;;8.63;7.70;;;;;;;12.75;100.00;100607.66;5105608;28;20469;-78
2023/04/29 03:49:38;;;;;;;9.32;8.00;;;;;;;12.76;100.00;100618.13;5089198;28;20047;-78
2023/04/29 03:52:05;;;;;;;9.15;8.15;;;;;;;12.74;100.00;100616.63;5104050;28;20047;-78
2023/04/29 03:54:31;;;;;;;10.80;7.38;;;;;;;12.77;100.00;100614.47;5113490;28;20026;-78
2023/04/29 03:56:57;;;;;;;12.32;8.43;;;;;;;12.76;100.00;100612.81;5106895;28;20035;-78
2023/04/29 03:59:23;;;;;;;15.23;9.32;;;;;;;12.73;100.00;100612.28;5097133;28;20036;-78
2023/04/29 04:01:51;;;;;;;10.90;8.57;;;;;;;12.67;100.00;100605.78;5083302;28;20453;-78
2023/04/29 04:04:16;;;;;;;17.40;9.95;;;;;;;12.64;100.00;100601.63;5098970;28;20028;-78
2023/04/29 04:06:50;;;;;;;21.65;9.40;;;;;;;12.56;100.00;100611.34;5088376;28;20388;-74
2023/04/29 04:09:18;;;;;;;32.35;11.45;;;;;;;12.42;100.00;100623.31;5102866;28;20108;-75
2023/04/29 04:11:45;;;;;;;18.65;10.85;;;;;;;12.40;100.00;100628.75;5103284;28;20031;-74
2023/04/29 04:14:12;;;;;;;22.33;9.85;;;;;;;12.42;100.00;100626.81;5089748;28;20126;-74
2023/04/29 04:16:38;;;;;;;13.73;9.90;;;;;;;12.47;100.00;100626.34;5082518;28;20130;-78
2023/04/29 04:19:04;;;;;;;25.60;10.80;;;;;;;12.50;100.00;100626.84;5106552;28;20031;-78
2023/04/29 04:21:33;;;;;;;31.48;10.93;;;;;;;12.54;100.00;100632.69;5108528;28;20031;-74
2023/04/29 04:24:04;;;;;;;19.27;10.48;;;;;;;12.57;100.00;100626.25;5099591;28;20035;-75
2023/04/29 04:26:30;;;;;;;25.85;9.48;;;;;;;12.60;100.00;100625.94;5086645;28;20145;-78
2023/04/29 04:28:56;;;;;;;31.70;10.00;;;;;;;12.61;100.00;100624.97;5105298;28;20085;-78
2023/04/29 04:31:38;;;;;;;68.85;10.75;;;;;;;12.61;100.00;100625.78;5103225;27;20066;-78
2023/04/29 04:34:04;;;;;;;40.25;11.05;;;;;;;12.61;100.00;100622.31;5109773;27;20106;-78
2023/04/29 04:36:31;;;;;;;96.75;13.00;;;;;;;12.60;100.00;100613.53;5111731;27;20625;-78
2023/04/29 04:38:57;;;;;;;180.05;14.20;;;;;;;12.58;100.00;100609.38;5098896;28;20170;-78
2023/04/29 04:41:23;;;;;;;104.10;13.55;;;;;;;12.49;100.00;100609.28;5093931;28;20055;-79
2023/04/29 04:43:51;;;;;;;137.55;13.43;;;;;;;12.36;100.00;100617.63;5093633;28;20124;-79
2023/04/29 04:46:41;;;;;;;145.55;13.35;;;;;;;12.25;100.00;100618.69;5102743;28;20096;-74
2023/04/29 04:49:17;;;;;;;242.82;13.55;;;;;;;12.18;100.00;100625.59;5110211;28;20575;-75
2023/04/29 04:51:50;;;;;;;45.08;10.75;;;;;;;12.18;100.00;100625.59;5109632;28;20092;-78
2023/04/29 04:54:16;;;;;;;34.58;10.18;;;;;;;12.20;100.00;100628.09;5091582;28;20563;-78
2023/04/29 04:56:42;;;;;;;27.30;9.75;;;;;;;12.19;100.00;100627.25;5105684;28;20115;-78
2023/04/29 04:59:08;;;;;;;55.38;10.10;;;;;;;12.17;100.00;100634.50;5109125;28;20494;-79
2023/04/29 05:01:36;;;;;;;132.80;10.57;;;;;;;12.18;100.00;100635.34;5075930;28;20043;-79
2023/04/29 05:04:02;;;;;;;95.70;10.75;;;;;;;12.22;100.00;100634.03;5111518;27;20036;-78
2023/04/29 05:06:29;;;;;;;28.73;9.10;;;;;;;12.24;100.00;100635.59;5112170;27;20032;-79
2023/04/29 05:08:55;;;;;;;21.02;10.15;;;;;;;12.30;100.00;100641.25;5096666;28;20478;-78
2023/04/29 05:11:22;;;;;;;32.55;9.93;;;;;;;12.34;100.00;100642.63;5111218;27;20039;-78
2023/04/29 05:14:04;;;;;;;19.92;10.15;;;;;;;12.38;100.00;100646.63;5085766;28;20038;-78
2023/04/29 05:16:30;;;;;;;30.33;10.45;;;;;;;12.41;100.00;100648.97;5108845;27;20035;-78
2023/04/29 05:18:56;;;;;;;103.57;11.13;;;;;;;12.42;100.00;100641.88;5095175;28;20032;-79
2023/04/29 05:21:25;;;;;;;34.20;9.63;;;;;;;12.42;100.00;100639.22;5107729;28;20035;-78
2023/04/29 05:23:51;;;;;;;59.30;10.65;;;;;;;12.43;100.00;100641.72;5109461;28;20635;-78
2023/04/29 05:26:17;;;;;;;41.40;11.50;;;;;;;12.46;100.00;100645.88;5092812;28;20131;-78
2023/04/29 05:28:43;;;;;;;45.63;11.13;;;;;;;12.47;100.00;100643.06;5109433;28;20032;-78
2023/04/29 05:31:10;;;;;;;25.27;10.57;;;;;;;12.48;100.00;100639.44;5101326;28;20484;-78
2023/04/29 05:33:36;;;;;;;22.33;11.40;;;;;;;12.51;100.00;100646.25;5095756;28;20035;-78
2023/04/29 05:36:02;;;;;;;12.40;10.05;;;;;;;12.53;100.00;100644.28;5093491;28;20036;-78
2023/04/29 05:38:27;;;;;;;10.93;9.32;;;;;;;12.55;100.00;100654.75;5083753;28;20122;-79
2023/04/29 05:41:02;;;;;;;12.88;10.02;;;;;;;12.53;100.00;100661.00;5108190;28;20028;-79
2023/04/29 05:43:31;;;;;;;13.02;9.68;;;;;;;12.51;100.00;100649.75;5108360;28;20031;-78
2023/04/29 05:45:57;;;;;;;12.88;9.88;;;;;;;12.53;100.00;100652.25;5090601;28;20031;-79
2023/04/29 05:48:23;;;;;;;10.70;9.25;;;;;;;12.55;100.00;100660.06;5110332;27;20477;-79
2023/04/29 05:50:50;;;;;;;11.88;9.10;;;;;;;12.54;100.00;100656.56;5102758;28;20576;-78
2023/04/29 05:53:16;;;;;;;13.38;10.27;;;;;;;12.53;100.00;100663.66;5091759;28;20395;-78
2023/04/29 05:55:43;;;;;;;11.15;9.70;;;;;;;12.51;100.00;100655.06;5109069;28;20023;-79
2023/04/29 05:58:10;;;;;;;12.13;10.05;;;;;;;12.52;100.00;100661.16;5092551;28;20034;-74
2023/04/29 06:00:36;;;;;;;12.20;9.52;;;;;;;12.51;100.00;100655.06;5107241;28;20185;-77
2023/04/29 06:03:11;;;;;;;11.00;9.77;;;;;;;12.52;100.00;100653.22;5102825;28;20445;-77
2023/04/29 06:05:37;;;;;;;12.95;9.95;;;;;;;12.55;100.00;100668.00;5102008;28;20032;-77
2023/04/29 06:08:18;;;;;;;11.60;9.50;;;;;;;12.55;100.00;100665.34;5109717;28;20028;-81
2023/04/29 06:11:02;;;;;;;12.63;9.93;;;;;;;12.56;100.00;100673.16;5109578;28;20034;-80
2023/04/29 06:13:29;;;;;;;10.68;9.02;;;;;;;12.55;100.00;100662.69;5087040;28;20039;-81
2023/04/29 06:15:55;;;;;;;18.10;9.65;;;;;;;12.54;100.00;100661.84;5108849;28;20027;-81
2023/04/29 06:18:22;;;;;;;9.57;8.30;;;;;;;12.55;100.00;100655.56;5096510;28;20514;-77
2023/04/29 06:20:47;;;;;;;12.63;8.52;;;;;;;12.57;100.00;100666.84;5091572;28;20135;-77
2023/04/29 06:23:13;;;;;;;51.83;9.48;;;;;;;12.58;100.00;100662.41;5085701;28;20091;-81
2023/04/29 06:25:40;;;;;;;28.73;9.68;;;;;;;12.64;100.00;100664.44;5078093;28;20066;-81
2023/04/29 06:28:08;;;;;;;18.67;9.10;;;;;;;12.70;100.00;100668.28;5076366;28;20221;-81
2023/04/29 06:30:33;;;;;;;12.18;8.90;;;;;;;12.74;100.00;100670.47;5085544;28;20036;-81
2023/04/29 06:32:59;;;;;;;9.25;6.75;;;;;;;12.78;100.00;100674.50;5085116;28;20041;-81
2023/04/29 06:35:25;;;;;;;18.70;8.30;;;;;;;12.84;100.00;100664.25;5107849;28;20027;-81
2023/04/29 06:38:07;;;;;;;129.07;11.45;;;;;;;12.87;100.00;100672.75;5099343;28;20035;-81
2023/04/29 06:40:33;;;;;;;32.35;8.98;;;;;;;12.84;100.00;100673.06;5110354;28;20512;-81
2023/04/29 06:43:05;;;;;;;160.57;9.73;;;;;;;12.81;100.00;100677.81;5108235;28;20024;-81
2023/04/29 06:45:47;;;;;;;131.35;9.45;;;;;;;12.87;100.00;100682.50;5090588;28;20040;-81
2023/04/29 06:48:22;;;;;;;16.98;8.02;;;;;;;12.92;100.00;100684.69;5097730;28;20043;-81
2023/04/29 06:50:53;;;;;;;260.00;12.10;;;;;;;12.95;100.00;100681.78;5107361;28;20038;-81
2023/04/29 06:53:20;;;;;;;191.80;11.05;;;;;;;12.92;100.00;100690.84;5106432;28;20023;-82
2023/04/29 06:55:46;;;;;;;48.15;9.35;;;;;;;12.92;100.00;100695.31;5103527;28;20039;-81
2023/04/29 06:58:16;;;;;;;131.52;9.25;;;;;;;12.96;100.00;100691.38;5087585;28;20070;-77
2023/04/29 07:00:47;;;;;;;120.78;10.30;;;;;;;12.99;100.00;100689.25;5095932;28;20047;-77
2023/04/29 07:03:15;;;;;;;424.02;16.40;;;;;;;13.00;100.00;100692.72;5077195;28;20758;-81
2023/04/29 07:05:41;;;;;;;408.35;19.27;;;;;;;13.05;100.00;100684.31;5079484;28;20036;-81
2023/04/29 07:08:09;;;;;;;238.68;12.82;;;;;;;13.13;100.00;100690.53;5080506;28;20036;-77
2023/04/29 07:10:35;;;;;;;167.85;8.90;;;;;;;13.18;100.00;100686.56;5069455;28;20039;-77
2023/04/29 07:13:01;;;;;;;96.43;7.43;;;;;;;13.20;100.00;100690.75;5074802;28;20704;-81
2023/04/29 07:15:28;;;;;;;50.33;7.15;;;;;;;13.27;100.00;100688.28;5080946;28;20028;-81
2023/04/29 07:17:55;;;;;;;46.33;7.13;;;;;;;13.35;100.00;100685.69;5082329;28;20066;-81
2023/04/29 07:20:21;;;;;;;83.63;8.43;;;;;;;13.40;100.00;100691.34;5075614;28;20033;-81
2023/04/29 07:22:48;;;;;;;48.15;8.05;;;;;;;13.47;100.00;100694.19;5076038;28;20085;-81
2023/04/29 07:25:14;;;;;;;109.80;8.60;;;;;;;13.54;100.00;100689.13;5066469;28;20029;-81
2023/04/29 07:27:40;;;;;;;84.03;7.40;;;;;;;13.60;100.00;100688.50;5060923;28;20036;-82
2023/04/29 07:30:07;;;;;;;109.50;7.95;;;;;;;13.60;100.00;100693.81;5081658;28;20172;-81
2023/04/29 07:32:33;;;;;;;137.43;8.77;;;;;;;13.54;100.00;100693.63;5077720;28;20113;-77
2023/04/29 07:35:02;;;;;;;146.07;8.75;;;;;;;13.43;100.00;100686.69;5083754;28;20141;-77
2023/04/29 07:37:29;;;;;;;81.10;7.75;;;;;;;13.46;100.00;100694.34;5077325;28;20032;-81
2023/04/29 07:39:55;;;;;;;61.17;7.85;;;;;;;13.48;100.00;100692.38;5064440;28;20032;-81
2023/04/29 07:42:22;;;;;;;128.50;9.57;;;;;;;13.56;100.00;100694.28;5082087;28;20044;-81
2023/04/29 07:44:48;;;;;;;212.43;9.30;;;;;;;13.56;100.00;100702.25;5074229;28;20056;-81
2023/04/29 07:47:14;;;;;;;235.85;10.60;;;;;;;13.56;100.00;100703.09;5079815;28;20050;-81
2023/04/29 07:49:40;;;;;;;65.25;7.95;;;;;;;13.61;100.00;100700.78;5086323;28;20059;-81
2023/04/29 07:52:08;;;;;;;108.07;7.97;;;;;;;13.60;100.00;100707.09;5084935;28;20024;-81
2023/04/29 07:54:35;;;;;;;69.03;7.22;;;;;;;13.56;100.00;100702.25;5083007;28;20062;-81
2023/04/29 07:57:03;;;;;;;10.43;6.75;;;;;;;13.67;100.00;100696.66;5083509;28;20103;-77
2023/04/29 07:59:32;;;;;;;7.40;6.35;;;;;;;13.82;100.00;100702.22;5079396;28;20055;-77
2023/04/29 08:01:58;;;;;;;10.05;6.00;;;;;;;13.86;100.00;100708.88;5098014;28;20051;-81
2023/04/29 08:04:24;;;;;;;20.00;6.50;;;;;;;13.82;100.00;100696.91;5104328;27;20031;-81
2023/04/29 08:07:03;;;;;;;11.65;6.28;;;;;;;13.80;100.00;100700.69;5102325;27;20032;-81
2023/04/29 08:09:29;;;;;;;16.30;6.53;;;;;;;13.86;100.00;100705.38;5086936;28;20091;-81
2023/04/29 08:11:55;;;;;;;7.30;6.60;;;;;;;13.99;100.00;100708.44;5078876;27;20042;-79
2023/04/29 08:14:21;;;;;;;7.97;6.63;;;;;;;14.13;100.00;100704.31;5111292;27;20027;-79
2023/04/29 08:16:47;;;;;;;12.63;6.57;;;;;;;14.20;100.00;100707.19;5105880;27;20027;-79
2023/04/29 08:19:13;;;;;;;9.50;6.40;;;;;;;14.35;100.00;100711.88;5093824;28;20039;-79
2023/04/29 08:21:40;;;;;;;6.55;5.90;;;;;;;14.31;100.00;100705.19;5092007;28;20032;-79
2023/04/29 08:24:06;;;;;;;6.93;6.32;;;;;;;14.33;100.00;100709.38;5110801;28;20119;-79
2023/04/29 08:26:32;;;;;;;6.75;6.10;;;;;;;14.44;100.00;100710.03;5109030;28;20039;-78
2023/04/29 08:28:58;;;;;;;6.07;5.47;;;;;;;14.54;100.00;100709.91;5104521;28;20119;-78
2023/04/29 08:31:24;;;;;;;5.72;5.22;;;;;;;14.68;100.00;100713.75;5103049;27;20387;-79
2023/04/29 08:33:51;;;;;;;4.95;4.50;;;;;;;14.79;100.00;100709.91;5109685;28;20035;-78
2023/04/29 08:36:16;;;;;;;5.30;4.80;;;;;;;14.88;100.00;100708.94;5106805;28;20059;-78
2023/04/29 08:38:42;;;;;;;4.25;3.88;;;;;;;15.00;100.00;100715.59;5103117;28;20035;-79
2023/04/29 08:41:08;;;;;;;3.78;3.47;;;;;;;15.13;100.00;100714.25;5104397;28;20036;-78
2023/04/29 08:43:41;;;;;;;4.97;4.18;;;;;;;15.22;100.00;100710.59;5068913;28;20055;-79
2023/04/29 08:46:09;;;;;;;5.55;3.33;;;;;;;15.30;100.00;100717.75;5104252;28;20028;-78
2023/04/29 08:48:36;;;;;;;3.92;3.30;;;;;;;15.34;100.00;100719.06;5075609;28;20038;-78
2023/04/29 08:51:02;;;;;;;4.28;3.38;;;;;;;15.45;100.00;100714.41;5106366;28;20114;-77
2023/04/29 08:53:28;;;;;;;4.78;3.25;;;;;;;15.48;100.00;100708.72;5098038;28;20032;-75
2023/04/29 08:56:00;;;;;;;6.22;3.22;;;;;;;15.59;100.00;100719.00;5107800;27;20028;-75
2023/04/29 08:58:28;;;;;;;3.75;3.45;;;;;;;15.60;100.00;100710.03;5106526;28;20507;-78
2023/04/29 09:00:55;;;;;;;3.95;2.97;;;;;;;15.65;100.00;100720.16;5111658;27;20044;-78
2023/04/29 09:03:31;;;;;;;3.28;2.50;;;;;;;15.79;100.00;100712.44;5103022;27;20031;-78
2023/04/29 09:06:00;;;;;;;5.93;2.20;;;;;;;15.89;100.00;100715.75;5091999;28;20111;-78
2023/04/29 09:08:27;;;;;;;1.58;0.82;;;;;;;15.95;100.00;100720.38;5106303;27;20035;-78
2023/04/29 09:10:53;;;;;;;3.88;2.10;;;;;;;15.91;100.00;100713.72;5094947;27;20045;-78
2023/04/29 09:13:23;;;;;;;1.70;0.73;;;;;;;16.01;100.00;100710.06;5118118;27;20782;-78
2023/04/29 09:15:49;;;;;;;1.55;1.35;;;;;;;15.99;100.00;100713.72;5125262;27;20031;-78
2023/04/29 09:18:44;;;;;;;1.60;0.60;;;;;;;16.07;100.00;100717.38;5112354;27;20040;-78
2023/04/29 09:21:21;;;;;;;4.68;1.02;;;;;;;16.21;100.00;100724.63;5088183;28;20377;-78
2023/04/29 09:23:51;;;;;;;1.50;0.45;;;;;;;16.27;100.00;100720.44;5119755;27;20054;-78
2023/04/29 09:26:18;;;;;;;1.35;0.40;;;;;;;16.34;100.00;100721.38;5102033;28;20027;-78
2023/04/29 09:28:44;;;;;;;1.67;0.63;;;;;;;16.38;100.00;100721.88;5089749;27;20407;-78
2023/04/29 09:31:11;;;;;;;2.90;0.68;;;;;;;16.50;100.00;100719.63;5110882;27;20086;-78
2023/04/29 09:33:57;;;;;;;1.17;0.55;;;;;;;16.59;100.00;100717.72;5113738;27;20031;-78
2023/04/29 09:36:50;;;;;;;2.38;0.55;;;;;;;16.74;100.00;100715.94;5116988;27;20042;-78
2023/04/29 09:39:21;;;;;;;2.33;0.43;;;;;;;16.84;100.00;100721.06;5108099;27;20139;-78
2023/04/29 09:41:52;;;;;;;1.45;0.45;;;;;;;16.94;100.00;100723.47;5127333;27;20054;-78
2023/04/29 09:44:30;;;;;;;3.22;0.77;;;;;;;17.05;100.00;100718.72;5111346;27;20035;-78
2023/04/29 09:47:05;;;;;;;1.85;1.27;;;;;;;17.12;100.00;100711.66;5103226;27;20066;-75
2023/04/29 09:49:36;;;;;;;2.97;1.60;;;;;;;17.21;100.00;100713.25;5123865;27;20027;-74
2023/04/29 09:52:04;;;;;;;1.33;0.80;;;;;;;17.22;100.00;100717.56;5107428;27;20038;-78
2023/04/29 09:54:32;;;;;;;2.42;0.63;;;;;;;17.23;100.00;100710.41;5092249;28;20024;-78
2023/04/29 09:57:01;;;;;;;2.60;0.70;;;;;;;17.23;100.00;100710.41;5125827;27;20039;-75
2023/04/29 09:59:27;;;;;;;6.00;0.82;;;;;;;17.18;100.00;100718.13;5115948;27;20482;-75
2023/04/29 10:01:57;;;;;;;1.45;0.50;;;;;;;17.25;100.00;100715.56;5111751;27;20078;-78
2023/04/29 10:04:25;;;;;;;1.08;0.43;;;;;;;17.22;100.00;100716.75;5098533;27;20035;-78
2023/04/29 10:06:55;;;;;;;3.10;0.85;;;;;;;17.30;100.00;100708.66;5083439;27;20057;-78
2023/04/29 10:09:22;;;;;;;3.60;0.43;;;;;;;17.33;100.00;100712.78;5101676;27;20390;-77
2023/04/29 10:11:50;;;;;;;1.58;0.40;;;;;;;17.40;100.00;100711.06;5082441;28;20042;-75
2023/04/29 10:14:18;;;;;;;4.13;0.40;;;;;;;17.43;100.00;100702.69;5107975;27;20068;-75
2023/04/29 10:16:47;;;;;;;6.55;0.95;;;;;;;17.47;100.00;100706.63;5107932;27;20471;-77
2023/04/29 10:19:34;;;;;;;3.33;0.40;;;;;;;17.47;100.00;100711.16;5118898;27;20051;-78
2023/04/29 10:22:08;;;;;;;5.20;0.90;;;;;;;17.42;100.00;100713.56;5100194;27;20096;-75
2023/04/29 10:24:36;;;;;;;1.88;0.38;;;;;;;17.39;100.00;100709.38;5085390;27;20040;-75
2023/04/29 10:27:06;;;;;;;2.38;0.82;;;;;;;17.37;100.00;100719.44;5092723;27;20407;-78
2023/04/29 10:29:35;;;;;;;2.35;0.60;;;;;;;17.33;100.00;100718.13;5122195;27;20046;-77
2023/04/29 10:32:03;;;;;;;3.72;0.50;;;;;;;17.31;100.00;100718.31;5101132;27;20039;-77
2023/04/29 10:34:32;;;;;;;1.77;0.45;;;;;;;17.30;100.00;100715.81;5127911;27;20023;-77
2023/04/29 10:36:58;;;;;;;2.28;0.35;;;;;;;17.29;100.00;100712.34;5125572;27;20039;-77
2023/04/29 10:40:12;;;;;;;2.30;0.50;;;;;;;17.36;100.00;100712.41;5108405;27;20026;-77
2023/04/29 10:42:42;;;;;;;4.82;0.55;;;;;;;17.45;100.00;100716.69;5013883;27;20047;-77
2023/04/29 10:45:31;;;;;;;1.98;0.52;;;;;;;17.54;100.00;100714.75;5097475;27;20027;-77
2023/04/29 10:48:09;;;;;;;1.33;0.30;;;;;;;17.64;100.00;100718.97;5106936;27;20027;-78
2023/04/29 10:50:47;;;;;;;2.47;0.40;;;;;;;17.73;100.00;100712.53;5120842;27;20035;-77
2023/04/29 10:53:18;;;;;;;1.33;0.40;;;;;;;17.79;100.00;100721.66;5124503;27;20039;-78
2023/04/29 10:55:52;;;;;;;1.70;0.40;;;;;;;17.83;100.00;100722.94;5124285;27;20429;-78
2023/04/29 10:58:42;;;;;;;2.47;0.32;;;;;;;17.87;100.00;100716.19;5125374;27;20035;-75
2023/04/29 11:01:13;;;;;;;3.97;0.60;;;;;;;17.91;100.00;100719.34;5096529;28;20039;-75
2023/04/29 11:04:05;;;;;;;1.73;0.40;;;;;;;17.92;100.00;100718.31;5118172;27;20039;-75
2023/04/29 11:06:34;;;;;;;2.72;0.50;;;;;;;17.94;100.00;100711.78;5069367;27;20091;-78
2023/04/29 11:09:08;;;;;;;2.33;0.50;;;;;;;17.93;100.00;100720.78;5103336;28;20476;-78
2023/04/29 11:11:42;;;;;;;3.40;0.50;;;;;;;18.02;100.00;100712.69;5121011;27;20034;-78
2023/04/29 11:14:12;;;;;;;3.75;1.27;;;;;;;18.15;100.00;100717.38;5104628;27;20031;-78
2023/04/29 11:16:47;;;;;;;2.17;0.50;;;;;;;18.22;100.00;100707.59;5107833;27;20090;-78
2023/04/29 11:19:15;;;;;;;5.95;0.50;;;;;;;18.21;100.00;100712.13;5100371;28;20080;-78
2023/04/29 11:21:41;;;;;;;2.53;0.50;;;;;;;18.12;100.00;100720.44;5122081;27;20039;-78